Currently 46°F in Perris, California, USA
46°F
47°F / 45°F
calm
0.01"
Sunday, January 22, 2017 4:11 AM PST

Perris, California Weather Summary
Last 36 Hours

Temperature Winds Hourly Humidity Dewpoint
Time Report Norm Report Norm Max Gusts Precip. Rpt. Norm Rpt. Norm Pressure
1Sun 04:11 AM  45.6°F  48°F  calm  2 mph  none  0.00"  97%  68%  45°F  37°F  30.18"
Sun 04:00 AM  45.5°F  48°F  calm  2 mph  none  0.00"  97%  67%  45°F  37°F  30.16"
3Sun 03:50 AM  45.0°F  48°F  calm  1 mph  none  ----  97%  68%  44°F  37°F  30.15"
Sun 03:00 AM  46.1°F  48°F  calm  2 mph  none  0.01"  97%  67%  45°F  37°F  30.14"
2Sun 02:21 AM  46.8°F  49°F  calm  2 mph  none  ----  96%  66%  46°F  38°F  30.16"
Sun 02:00 AM  46.7°F  49°F  calm  2 mph  none  0.00"  96%  65%  46°F  37°F  30.15"
Sun 01:00 AM  45.9°F  50°F  calm  1 mph  none  0.00"  96%  63%  45°F  38°F  30.16"
Sun 12:00 AM  45.8°F  51°F  calm  2 mph  none  0.00"  96%  61%  45°F  38°F  30.16"
Sat 11:00 PM  46.0°F  52°F  calm  2 mph  none  0.00"  96%  60%  45°F  38°F  30.15"
Sat 10:00 PM  46.4°F  54°F  calm  2 mph  7 mph  0.00"  93%  58%  44°F  39°F  30.14"
Sat 09:00 PM  46.3°F  55°F  3 mph SE  2 mph  8 mph  0.00"  95%  55%  45°F  39°F  30.14"
Sat 08:00 PM  47.1°F  57°F  5 mph S  3 mph  9 mph  0.00"  94%  52%  45°F  38°F  30.11"
Sat 07:00 PM  47.9°F  58°F  7 mph S  3 mph  9 mph  0.00"  90%  50%  45°F  38°F  30.07"
Sat 06:00 PM  50.0°F  59°F  4 mph S  3 mph  11 mph  0.00"  84%  46%  45°F  38°F  30.04"
Sat 05:00 PM  52.3°F  62°F  4 mph SW  4 mph  9 mph  0.00"  78%  42%  45°F  38°F  30.02"
Sat 04:00 PM  57.0°F  64°F  3 mph NW  4 mph  6 mph  0.00"  65%  39%  45°F  38°F  30.00"
Sat 03:00 PM  55.6°F  66°F  3 mph W  5 mph  7 mph  0.00"  65%  37%  44°F  37°F  29.99"
Sat 02:00 PM  57.8°F  66°F  2 mph W  4 mph  8 mph  0.00"  62%  36%  44°F  37°F  29.98"
Sat 01:00 PM  52.1°F  66°F  3 mph NE  4 mph  5 mph  0.00"  68%  37%  42°F  37°F  29.97"
Sat 12:00 PM  51.7°F  64°F  1 mph E  3 mph  9 mph  0.00"  72%  40%  43°F  38°F  29.96"
Sat 11:00 AM  50.0°F  61°F  5 mph SE  3 mph  8 mph  0.00"  78%  47%  43°F  40°F  29.96"
Sat 10:00 AM  48.6°F  57°F  5 mph SE  2 mph  7 mph  0.00"  84%  55%  44°F  41°F  29.94"
Sat 09:00 AM  46.2°F  52°F  2 mph NE  2 mph  7 mph  0.00"  89%  64%  43°F  40°F  29.91"
Sat 08:00 AM  43.9°F  48°F  3 mph NE  2 mph  7 mph  0.00"  95%  68%  42°F  37°F  29.87"
Sat 07:00 AM  43.4°F  46°F  5 mph NW  1 mph  11 mph  0.00"  92%  70%  41°F  36°F  29.83"
Sat 06:00 AM  43.4°F  47°F  calm  1 mph  10 mph  0.00"  91%  68%  41°F  36°F  29.78"
Sat 05:00 AM  43.9°F  47°F  5 mph NW  1 mph  18 mph  0.00"  92%  67%  41°F  36°F  29.74"
Sat 04:00 AM  44.4°F  48°F  8 mph W  1 mph  14 mph  0.00"  92%  66%  42°F  36°F  29.70"
Sat 03:00 AM  44.4°F  48°F  4 mph NW  1 mph  13 mph  0.00"  90%  66%  42°F  37°F  29.68"
Sat 02:00 AM  45.1°F  49°F  7 mph W  2 mph  18 mph  0.00"  85%  64%  41°F  37°F  29.65"
Sat 01:00 AM  44.9°F  50°F  7 mph W  1 mph  13 mph  0.00"  90%  62%  42°F  37°F  29.63"
Sat 12:00 AM  46.3°F  51°F  2 mph NE  1 mph  9 mph  0.00"  90%  60%  43°F  37°F  29.61"
Fri 11:00 PM  47.6°F  52°F  1 mph SW  2 mph  7 mph  0.00"  89%  58%  44°F  38°F  29.59"
Fri 10:00 PM  47.5°F  54°F  2 mph SW  2 mph  9 mph  0.00"  91%  56%  45°F  38°F  29.58"
Fri 09:00 PM  47.7°F  55°F  2 mph SW  2 mph  10 mph  0.00"  92%  53%  45°F  38°F  29.57"
Fri 08:00 PM  48.3°F  57°F  5 mph W  3 mph  8 mph  0.00"  91%  50%  46°F  38°F  29.56"
Fri 07:00 PM  48.1°F  58°F  3 mph SW  3 mph  10 mph  0.00"  92%  48%  46°F  37°F  29.54"
Fri 06:00 PM  49.2°F  60°F  3 mph S  3 mph  11 mph  0.00"  93%  44%  47°F  37°F  29.51"
Fri 05:00 PM  49.9°F  62°F  5 mph W  4 mph  18 mph  0.01"  92%  40%  47°F  37°F  29.48"

  1. Current weather data. No green row appears if the current weather data is also the high or low for the current day.
  2. High temperature for the current day.
  3. Low temperature for the current day.

The Perris, California weather pages are a service of WeatherCurrents. Perris is located in Southern California's Inland Empire, south of Riverside and north of Sun City, along the Interstate 215 freeway.
Copyright ©Sun Jan 22 04:11:19 PST 2017  WeatherCurrents. All rights reserved. - Submit questions and comments - Privacy Policy

This page automatically refreshes every 10 minutes.